Time;durP1;ratioP1;P1;durP2;ratioP2;P2;SDS_P1;SDS_P2;PMS_P1;PMS_P2;Temp;Humidity;BMP_temperature;BMP_pressure;BME280_temperature;BME280_humidity;BME280_pressure;Samples;Min_cycle;Max_cycle;Signal;HPM_P1;HPM_P2
2023/10/20 00:00:15;;;;;;;7.77;6.00;;;15.20;99.90;;;;;;5091412;28;20453;-79
2023/10/20 00:02:42;;;;;;;6.30;5.40;;;15.20;99.90;;;;;;5094990;28;20479;-78
2023/10/20 00:05:10;;;;;;;6.77;6.03;;;15.20;99.90;;;;;;5090307;28;20823;-79
2023/10/20 00:07:36;;;;;;;7.90;5.67;;;15.20;99.90;;;;;;5085595;28;20472;-79
2023/10/20 00:10:09;;;;;;;8.60;6.00;;;15.20;99.90;;;;;;5094532;28;20471;-80
2023/10/20 00:12:35;;;;;;;7.33;5.63;;;15.20;99.90;;;;;;5085996;28;20489;-80
2023/10/20 00:15:03;;;;;;;7.57;6.63;;;15.30;99.90;;;;;;5089854;28;20462;-79
2023/10/20 00:17:32;;;;;;;6.60;5.90;;;15.20;99.90;;;;;;5088709;28;20461;-79
2023/10/20 00:19:58;;;;;;;6.97;6.27;;;15.30;99.90;;;;;;5093380;28;20540;-79
2023/10/20 00:22:26;;;;;;;6.87;6.17;;;15.30;99.90;;;;;;5086205;28;20476;-76
2023/10/20 00:24:53;;;;;;;7.50;5.70;;;15.20;99.90;;;;;;5093286;28;20449;-78
2023/10/20 00:27:21;;;;;;;8.67;6.40;;;15.20;99.90;;;;;;5085059;28;20457;-77
2023/10/20 00:29:47;;;;;;;7.87;5.90;;;15.30;99.90;;;;;;5089190;28;20536;-77
2023/10/20 00:32:14;;;;;;;6.50;5.90;;;15.20;99.90;;;;;;5093988;28;20494;-80
2023/10/20 00:34:41;;;;;;;6.60;5.90;;;15.20;99.90;;;;;;5083863;28;20828;-79
2023/10/20 00:37:08;;;;;;;7.67;6.53;;;15.20;99.90;;;;;;5090486;28;20450;-76
2023/10/20 00:39:35;;;;;;;9.63;6.30;;;15.30;99.90;;;;;;5090559;28;20467;-78
2023/10/20 00:42:02;;;;;;;6.83;5.60;;;15.30;99.90;;;;;;5090198;28;20473;-77
2023/10/20 00:44:30;;;;;;;6.80;5.87;;;15.30;99.90;;;;;;5085736;28;20455;-79
2023/10/20 00:46:58;;;;;;;8.07;6.37;;;15.20;99.90;;;;;;5087837;28;20464;-79
2023/10/20 00:49:25;;;;;;;9.20;6.17;;;15.20;99.90;;;;;;5093447;28;20454;-79
2023/10/20 00:51:52;;;;;;;7.10;6.40;;;15.20;99.90;;;;;;5090173;28;21011;-77
2023/10/20 00:54:20;;;;;;;9.13;6.70;;;15.20;99.90;;;;;;5083453;28;20457;-77
2023/10/20 00:56:47;;;;;;;7.43;6.60;;;15.30;99.90;;;;;;5094496;28;20458;-78
2023/10/20 00:59:14;;;;;;;11.00;6.70;;;15.20;99.90;;;;;;5087855;28;20464;-79
2023/10/20 01:01:42;;;;;;;10.60;7.23;;;15.20;99.90;;;;;;5087703;28;20445;-78
2023/10/20 01:04:09;;;;;;;9.80;6.83;;;15.20;99.90;;;;;;5079806;28;20462;-78
2023/10/20 01:06:37;;;;;;;8.80;6.23;;;15.20;99.90;;;;;;5077692;28;20465;-79
2023/10/20 01:09:04;;;;;;;9.10;7.03;;;15.20;99.90;;;;;;5078893;28;20467;-77
2023/10/20 01:11:31;;;;;;;8.60;6.80;;;15.20;99.90;;;;;;5073484;28;20489;-77
2023/10/20 01:13:58;;;;;;;10.23;7.77;;;15.20;99.90;;;;;;5077317;28;20955;-78
2023/10/20 01:16:25;;;;;;;8.80;6.53;;;15.10;99.90;;;;;;5078706;28;20448;-77
2023/10/20 01:18:53;;;;;;;7.57;6.73;;;15.10;99.90;;;;;;5083302;28;20454;-78
2023/10/20 01:21:19;;;;;;;9.03;7.07;;;15.20;99.90;;;;;;5081521;28;20941;-78
2023/10/20 01:23:46;;;;;;;9.73;7.13;;;15.10;99.90;;;;;;5085572;28;20479;-78
2023/10/20 01:26:14;;;;;;;7.13;6.33;;;15.10;99.90;;;;;;5082623;28;20472;-79
2023/10/20 01:28:41;;;;;;;13.80;6.90;;;15.10;99.90;;;;;;5085311;28;20457;-77
2023/10/20 01:31:08;;;;;;;8.47;6.07;;;15.10;99.90;;;;;;5080868;28;20491;-77
2023/10/20 01:33:35;;;;;;;8.40;7.43;;;15.10;99.90;;;;;;5077673;28;20992;-78
2023/10/20 01:36:01;;;;;;;7.73;6.93;;;15.10;99.90;;;;;;5077138;28;20454;-78
2023/10/20 01:38:28;;;;;;;8.47;7.67;;;15.20;99.90;;;;;;5086645;28;20450;-80
2023/10/20 01:40:55;;;;;;;8.27;7.23;;;15.20;99.90;;;;;;5087625;28;20982;-79
2023/10/20 01:43:23;;;;;;;10.40;6.60;;;15.10;99.90;;;;;;5079697;28;20814;-78
2023/10/20 01:45:50;;;;;;;9.60;8.03;;;15.10;99.90;;;;;;5080630;28;20450;-78
2023/10/20 01:48:17;;;;;;;10.90;7.37;;;15.10;99.90;;;;;;5080910;28;20456;-77
2023/10/20 01:50:45;;;;;;;9.60;8.60;;;15.20;99.90;;;;;;5093129;28;20865;-79
2023/10/20 01:53:11;;;;;;;9.77;7.90;;;15.20;99.90;;;;;;5089530;28;20466;-79
2023/10/20 01:55:39;;;;;;;9.90;8.57;;;15.20;99.90;;;;;;5090171;28;20837;-78
2023/10/20 01:58:06;;;;;;;10.13;8.57;;;15.10;99.90;;;;;;5085119;28;20489;-77
2023/10/20 02:00:36;;;;;;;10.30;9.23;;;15.10;99.90;;;;;;5087986;28;20466;-78
2023/10/20 02:03:03;;;;;;;9.47;8.47;;;15.10;99.90;;;;;;5093143;28;20485;-78
2023/10/20 02:05:30;;;;;;;11.33;8.90;;;15.10;99.90;;;;;;5087715;28;20865;-78
2023/10/20 02:07:57;;;;;;;11.13;9.57;;;15.10;99.90;;;;;;5073219;28;20492;-78
2023/10/20 02:10:25;;;;;;;12.17;9.63;;;15.00;99.90;;;;;;5090852;28;20460;-79
2023/10/20 02:12:51;;;;;;;12.93;9.77;;;15.10;99.90;;;;;;5085846;28;20476;-79
2023/10/20 02:15:18;;;;;;;13.60;9.77;;;15.10;99.90;;;;;;5082264;28;20493;-78
2023/10/20 02:17:47;;;;;;;12.50;9.33;;;15.10;99.90;;;;;;5073719;28;20533;-79
2023/10/20 02:20:15;;;;;;;16.93;10.83;;;15.10;99.90;;;;;;5075929;28;20457;-80
2023/10/20 02:22:43;;;;;;;13.03;10.50;;;15.10;99.90;;;;;;5076931;28;20475;-80
2023/10/20 02:25:10;;;;;;;11.73;9.70;;;15.10;99.90;;;;;;5090434;28;20456;-77
2023/10/20 02:27:39;;;;;;;11.13;9.80;;;15.00;99.90;;;;;;5086037;28;20968;-78
2023/10/20 02:30:08;;;;;;;11.90;10.37;;;15.10;99.90;;;;;;5087402;28;20457;-78
2023/10/20 02:32:35;;;;;;;13.50;10.50;;;15.00;99.90;;;;;;5083776;28;20534;-78
2023/10/20 02:35:03;;;;;;;13.90;10.47;;;15.00;99.90;;;;;;5078757;28;20455;-79
2023/10/20 02:37:30;;;;;;;13.80;10.63;;;15.00;99.90;;;;;;5093860;28;20457;-80
2023/10/20 02:39:57;;;;;;;16.20;10.67;;;15.00;99.90;;;;;;5088972;28;20993;-80
2023/10/20 02:42:24;;;;;;;15.17;10.10;;;15.00;99.90;;;;;;5084336;28;21009;-79
2023/10/20 02:44:51;;;;;;;12.40;10.20;;;15.00;99.90;;;;;;5091606;28;20544;-79
2023/10/20 02:47:18;;;;;;;12.40;10.77;;;15.10;99.90;;;;;;5074527;28;20462;-79
2023/10/20 02:49:45;;;;;;;12.23;10.03;;;15.00;99.90;;;;;;5089022;28;20460;-79
2023/10/20 02:52:13;;;;;;;13.60;10.30;;;15.00;99.90;;;;;;5090446;28;21172;-78
2023/10/20 02:54:40;;;;;;;18.33;11.60;;;15.00;99.90;;;;;;5094626;28;20460;-79
2023/10/20 02:57:07;;;;;;;11.73;10.53;;;14.90;99.90;;;;;;5084750;28;20453;-78
2023/10/20 02:59:34;;;;;;;11.57;10.47;;;15.00;99.90;;;;;;5078901;28;20464;-78
2023/10/20 03:02:01;;;;;;;11.93;10.53;;;15.00;99.90;;;;;;5081990;28;20470;-78
2023/10/20 03:04:28;;;;;;;12.80;10.80;;;15.00;99.90;;;;;;5086724;28;20453;-80
2023/10/20 03:06:54;;;;;;;12.60;10.17;;;15.00;99.90;;;;;;5084478;28;20459;-79
2023/10/20 03:09:22;;;;;;;11.80;9.43;;;15.10;99.90;;;;;;5090646;28;20446;-80
2023/10/20 03:11:49;;;;;;;12.33;9.93;;;15.10;99.90;;;;;;5094602;28;20507;-79
2023/10/20 03:14:17;;;;;;;12.90;10.43;;;15.00;99.90;;;;;;5083434;28;20477;-79
2023/10/20 03:16:45;;;;;;;11.50;9.60;;;15.00;99.90;;;;;;5084975;28;20554;-79
2023/10/20 03:19:12;;;;;;;14.87;11.03;;;15.00;99.90;;;;;;5079505;28;20460;-79
2023/10/20 03:21:39;;;;;;;12.70;11.23;;;15.00;99.90;;;;;;5091399;28;20451;-78
2023/10/20 03:24:07;;;;;;;12.57;10.93;;;15.00;99.90;;;;;;5092093;28;20467;-80
2023/10/20 03:26:34;;;;;;;14.43;11.80;;;15.00;99.90;;;;;;5096599;28;21020;-79
2023/10/20 03:29:01;;;;;;;13.60;10.40;;;15.00;99.90;;;;;;5090297;28;20460;-80
2023/10/20 03:31:27;;;;;;;13.63;11.70;;;15.00;99.90;;;;;;5091365;28;21035;-79
2023/10/20 03:33:55;;;;;;;12.63;10.83;;;15.00;99.90;;;;;;5099959;28;20461;-79
2023/10/20 03:36:22;;;;;;;13.13;11.13;;;15.00;99.90;;;;;;5090070;28;20579;-79
2023/10/20 03:38:50;;;;;;;14.63;11.20;;;15.00;99.90;;;;;;5085582;28;20456;-78
2023/10/20 03:41:17;;;;;;;12.13;10.70;;;15.00;99.90;;;;;;5078753;28;20504;-78
2023/10/20 03:43:45;;;;;;;13.30;11.23;;;15.00;99.90;;;;;;5085701;28;20488;-78
2023/10/20 03:46:13;;;;;;;13.53;10.20;;;14.90;99.90;;;;;;5079920;28;20466;-76
2023/10/20 03:48:40;;;;;;;12.90;11.27;;;14.90;99.90;;;;;;5074539;28;20469;-77
2023/10/20 03:51:11;;;;;;;16.23;12.00;;;14.90;99.90;;;;;;5076165;28;20565;-78
2023/10/20 03:53:46;;;;;;;14.87;10.40;;;14.90;99.90;;;;;;5078474;28;20522;-78
2023/10/20 03:56:13;;;;;;;15.23;12.00;;;14.90;99.90;;;;;;5084151;28;20458;-79
2023/10/20 03:58:42;;;;;;;13.50;10.93;;;14.90;99.90;;;;;;5088737;28;20462;-80
2023/10/20 04:01:11;;;;;;;13.10;11.27;;;14.90;99.90;;;;;;5096092;28;20486;-80
2023/10/20 04:03:38;;;;;;;16.07;12.17;;;14.90;99.90;;;;;;5093314;28;20482;-80
2023/10/20 04:06:07;;;;;;;16.20;12.17;;;14.90;99.90;;;;;;5088624;28;20826;-79
2023/10/20 04:08:35;;;;;;;13.87;12.00;;;14.90;99.90;;;;;;5097649;28;20472;-77
2023/10/20 04:11:02;;;;;;;13.70;12.13;;;14.80;99.90;;;;;;5092801;28;20492;-80
2023/10/20 04:13:29;;;;;;;14.80;12.93;;;14.90;99.90;;;;;;5081822;28;20562;-79
2023/10/20 04:15:56;;;;;;;15.77;13.10;;;14.90;99.90;;;;;;5084399;28;20540;-80
2023/10/20 04:18:24;;;;;;;13.50;11.93;;;14.90;99.90;;;;;;5099088;28;20454;-79
2023/10/20 04:20:57;;;;;;;18.30;13.90;;;14.90;99.90;;;;;;5087975;28;20955;-80
2023/10/20 04:23:24;;;;;;;21.90;13.97;;;14.90;99.90;;;;;;5077681;28;21045;-77
2023/10/20 04:25:53;;;;;;;15.17;12.70;;;14.90;99.90;;;;;;5078219;28;20451;-80
2023/10/20 04:28:28;;;;;;;18.23;14.63;;;14.90;99.90;;;;;;5077880;28;20451;-78
2023/10/20 04:42:43;;;;;;;19.03;15.40;;;14.90;99.90;;;;;;5085752;28;20472;-79
2023/10/20 04:50:41;;;;;;;17.70;13.47;;;15.00;99.90;;;;;;5079357;28;20846;-78
2023/10/20 04:53:12;;;;;;;19.33;13.90;;;15.00;99.90;;;;;;5082703;28;20500;-80
2023/10/20 04:58:42;;;;;;;22.57;14.93;;;15.00;99.90;;;;;;5090811;28;20616;-78
2023/10/20 05:01:17;;;;;;;19.33;15.73;;;15.00;99.90;;;;;;5089537;28;20458;-78
2023/10/20 05:03:46;;;;;;;20.43;14.70;;;14.90;99.90;;;;;;5085990;28;20486;-78
2023/10/20 05:06:22;;;;;;;17.73;12.47;;;15.00;99.90;;;;;;5094127;28;20532;-76
2023/10/20 05:08:50;;;;;;;20.73;16.73;;;14.90;99.90;;;;;;5080879;28;20463;-77
2023/10/20 05:11:17;;;;;;;16.83;13.57;;;14.90;99.90;;;;;;5080913;28;21050;-78
2023/10/20 05:13:44;;;;;;;20.10;14.97;;;15.00;99.90;;;;;;5095551;28;20481;-79
2023/10/20 05:16:12;;;;;;;18.83;14.57;;;14.90;99.90;;;;;;5093101;28;20457;-79
2023/10/20 05:18:39;;;;;;;18.17;16.03;;;14.90;99.90;;;;;;5092862;28;20454;-79
2023/10/20 05:21:08;;;;;;;15.27;13.63;;;14.90;99.90;;;;;;5090447;28;20461;-80
2023/10/20 05:23:37;;;;;;;22.40;16.20;;;14.90;99.90;;;;;;5091265;28;21168;-79
2023/10/20 05:26:04;;;;;;;19.87;17.13;;;14.90;99.90;;;;;;5084742;28;20830;-77
2023/10/20 05:28:31;;;;;;;19.20;15.80;;;14.90;99.90;;;;;;5096608;28;20531;-79
2023/10/20 05:30:58;;;;;;;20.20;15.77;;;14.90;99.90;;;;;;5083687;28;20463;-79
2023/10/20 05:33:26;;;;;;;21.63;15.90;;;14.90;99.90;;;;;;5077376;28;20494;-79
2023/10/20 05:35:53;;;;;;;15.97;13.83;;;14.90;99.90;;;;;;5090336;28;20466;-79
2023/10/20 05:38:20;;;;;;;18.70;15.10;;;14.90;99.90;;;;;;5090141;28;20459;-79
2023/10/20 05:40:58;;;;;;;15.67;14.00;;;14.90;99.90;;;;;;5096467;28;20667;-79
2023/10/20 05:43:25;;;;;;;18.53;15.33;;;15.00;99.90;;;;;;5073722;28;20476;-79
2023/10/20 05:45:52;;;;;;;14.70;12.90;;;14.90;99.90;;;;;;5077574;28;20969;-78
2023/10/20 05:48:19;;;;;;;15.50;13.37;;;15.00;99.90;;;;;;5085311;28;20985;-79
2023/10/20 05:50:45;;;;;;;13.67;12.17;;;15.00;99.90;;;;;;5089306;28;20538;-77
2023/10/20 05:53:12;;;;;;;16.50;13.37;;;15.00;99.90;;;;;;5085703;28;20486;-78
2023/10/20 05:55:39;;;;;;;14.70;12.10;;;15.00;99.90;;;;;;5086794;28;20465;-77
2023/10/20 05:58:08;;;;;;;19.10;14.47;;;15.00;99.90;;;;;;5074826;28;20967;-77
2023/10/20 06:00:36;;;;;;;16.13;13.53;;;15.00;99.90;;;;;;5076894;28;20468;-77
2023/10/20 06:03:05;;;;;;;18.73;14.33;;;15.00;99.90;;;;;;5084276;28;20532;-77
2023/10/20 06:05:32;;;;;;;16.67;12.57;;;15.00;99.90;;;;;;5077154;28;20899;-77
2023/10/20 06:07:59;;;;;;;16.13;12.70;;;15.00;99.90;;;;;;5076465;28;20636;-77
2023/10/20 06:10:29;;;;;;;17.97;13.07;;;15.00;99.90;;;;;;5087604;28;20469;-77
2023/10/20 06:12:57;;;;;;;14.83;12.97;;;15.00;99.90;;;;;;5081469;28;20486;-78
2023/10/20 06:15:25;;;;;;;15.00;11.70;;;15.00;99.90;;;;;;5074607;28;20464;-77
2023/10/20 06:17:52;;;;;;;14.73;12.40;;;15.00;99.90;;;;;;5069633;28;21164;-78
2023/10/20 06:20:19;;;;;;;13.40;11.77;;;15.00;99.90;;;;;;5073190;28;20451;-77
2023/10/20 06:22:46;;;;;;;16.97;11.87;;;15.00;99.90;;;;;;5072307;28;20553;-77
2023/10/20 06:25:13;;;;;;;16.13;13.00;;;15.00;99.90;;;;;;5077445;28;20536;-77
2023/10/20 06:27:42;;;;;;;18.63;13.17;;;14.90;99.90;;;;;;5069769;28;20460;-78
2023/10/20 06:30:19;;;;;;;15.23;12.30;;;14.90;99.90;;;;;;5080513;28;20460;-77
2023/10/20 06:32:56;;;;;;;18.03;12.93;;;14.90;99.90;;;;;;5078697;28;20575;-76
2023/10/20 06:35:32;;;;;;;16.63;13.27;;;14.80;99.90;;;;;;5073234;28;20451;-77
2023/10/20 06:38:11;;;;;;;19.30;15.03;;;14.90;99.90;;;;;;5073468;28;20446;-77
2023/10/20 06:40:39;;;;;;;14.83;13.30;;;14.80;99.90;;;;;;5076194;28;20445;-78
2023/10/20 06:43:06;;;;;;;19.10;15.17;;;14.80;99.90;;;;;;5071115;28;20468;-78
2023/10/20 06:45:34;;;;;;;21.50;14.60;;;14.80;99.90;;;;;;5078878;28;20978;-77
2023/10/20 06:48:02;;;;;;;16.33;14.37;;;14.80;99.90;;;;;;5075831;28;20852;-77
2023/10/20 06:50:28;;;;;;;18.50;15.57;;;14.80;99.90;;;;;;5079730;28;20471;-78
2023/10/20 06:52:55;;;;;;;17.40;13.90;;;14.70;99.90;;;;;;5074916;28;21202;-79
2023/10/20 06:55:22;;;;;;;17.00;14.17;;;14.70;99.90;;;;;;5079188;28;20946;-78
2023/10/20 06:57:49;;;;;;;15.80;14.10;;;14.70;99.90;;;;;;5083578;28;20468;-77
2023/10/20 07:00:17;;;;;;;17.07;14.20;;;14.70;99.90;;;;;;5091316;28;20462;-78
2023/10/20 07:02:44;;;;;;;20.50;16.80;;;14.70;99.90;;;;;;5087933;28;20475;-76
2023/10/20 07:05:13;;;;;;;19.00;16.10;;;14.70;99.90;;;;;;5088628;28;20469;-79
2023/10/20 07:07:40;;;;;;;17.13;13.37;;;14.70;99.90;;;;;;5083405;28;20476;-77
2023/10/20 07:10:10;;;;;;;16.90;12.63;;;14.70;99.90;;;;;;5083088;28;20486;-78
2023/10/20 07:12:37;;;;;;;14.97;12.67;;;14.60;99.90;;;;;;5077343;28;20600;-77
2023/10/20 07:15:06;;;;;;;14.47;12.87;;;14.60;99.90;;;;;;5076190;28;20464;-78
2023/10/20 07:17:33;;;;;;;15.50;12.83;;;14.60;99.90;;;;;;5077751;28;20445;-76
2023/10/20 07:20:00;;;;;;;15.03;12.57;;;14.60;99.90;;;;;;5084766;28;20447;-79
2023/10/20 07:22:28;;;;;;;12.90;11.57;;;14.60;99.90;;;;;;5094317;28;20882;-79
2023/10/20 07:24:55;;;;;;;13.33;10.60;;;14.60;99.90;;;;;;5093469;28;20451;-77
2023/10/20 07:27:22;;;;;;;12.70;11.13;;;14.60;99.90;;;;;;5097894;28;20466;-77
2023/10/20 07:29:49;;;;;;;11.17;9.97;;;14.60;99.90;;;;;;5083438;28;20455;-78
2023/10/20 07:32:17;;;;;;;10.80;9.67;;;14.50;99.90;;;;;;5084166;28;20490;-78
2023/10/20 07:34:44;;;;;;;14.27;11.10;;;14.50;99.90;;;;;;5095372;28;20516;-79
2023/10/20 07:37:11;;;;;;;11.17;9.40;;;14.50;99.90;;;;;;5093417;28;20454;-78
2023/10/20 07:39:39;;;;;;;12.53;8.60;;;14.50;99.90;;;;;;5095764;28;20679;-77
2023/10/20 07:42:06;;;;;;;9.37;8.40;;;14.40;99.90;;;;;;5097314;28;20474;-78
2023/10/20 07:44:33;;;;;;;13.50;10.43;;;14.40;99.90;;;;;;5083390;28;20488;-77
2023/10/20 07:47:00;;;;;;;12.20;8.60;;;14.40;99.90;;;;;;5075724;28;20451;-77
2023/10/20 07:49:27;;;;;;;8.50;7.70;;;14.40;99.90;;;;;;5079556;28;20499;-78
2023/10/20 07:51:54;;;;;;;10.50;8.20;;;14.50;99.90;;;;;;5080789;28;20837;-77
2023/10/20 07:54:20;;;;;;;9.07;8.07;;;14.40;99.90;;;;;;5083518;28;20513;-77
2023/10/20 07:56:49;;;;;;;9.03;7.77;;;14.40;99.90;;;;;;5076783;28;20450;-76
2023/10/20 07:59:17;;;;;;;8.57;7.63;;;14.50;99.90;;;;;;5094251;28;20457;-77
2023/10/20 08:01:44;;;;;;;9.50;8.00;;;14.50;99.90;;;;;;5078226;28;20820;-78
2023/10/20 08:04:11;;;;;;;10.47;8.73;;;14.50;99.90;;;;;;5078830;28;20922;-77
2023/10/20 08:06:38;;;;;;;7.63;6.83;;;14.60;99.90;;;;;;5084647;28;20460;-77
2023/10/20 08:09:05;;;;;;;9.90;7.70;;;14.50;99.90;;;;;;5080809;28;20460;-78
2023/10/20 08:11:32;;;;;;;8.03;6.60;;;14.50;99.90;;;;;;5089642;28;20875;-77
2023/10/20 08:14:00;;;;;;;7.30;6.33;;;14.50;99.90;;;;;;5074405;28;20530;-77
2023/10/20 08:16:27;;;;;;;9.90;7.20;;;14.50;99.90;;;;;;5074352;28;20447;-77
2023/10/20 08:18:54;;;;;;;6.83;6.03;;;14.40;99.90;;;;;;5082672;28;20450;-75
2023/10/20 08:21:26;;;;;;;6.90;6.20;;;14.40;99.90;;;;;;5091237;28;20464;-77
2023/10/20 08:23:52;;;;;;;7.30;5.93;;;14.40;99.90;;;;;;5090234;28;20527;-76
2023/10/20 08:26:20;;;;;;;7.37;6.10;;;14.40;99.90;;;;;;5075613;28;20450;-76
2023/10/20 08:28:49;;;;;;;6.80;5.57;;;14.40;99.90;;;;;;5083382;28;20946;-78
2023/10/20 08:31:19;;;;;;;6.50;5.13;;;14.40;99.90;;;;;;5080876;28;20490;-77
2023/10/20 08:33:47;;;;;;;5.70;4.47;;;14.30;99.90;;;;;;5076937;28;20513;-78
2023/10/20 08:36:15;;;;;;;7.60;6.80;;;14.40;99.90;;;;;;5079024;28;20509;-78
2023/10/20 08:38:44;;;;;;;4.80;4.30;;;14.40;99.90;;;;;;5079748;28;20453;-78
2023/10/20 08:41:13;;;;;;;6.30;5.40;;;14.40;99.90;;;;;;5092236;28;20470;-77
2023/10/20 08:43:40;;;;;;;8.30;5.40;;;14.30;99.90;;;;;;5091007;28;20474;-78
2023/10/20 08:46:09;;;;;;;5.37;4.80;;;14.20;99.90;;;;;;5081862;28;20547;-78
2023/10/20 08:48:39;;;;;;;6.57;5.00;;;14.30;99.90;;;;;;5078870;28;20822;-77
2023/10/20 08:51:07;;;;;;;5.50;4.47;;;14.30;99.90;;;;;;5096071;28;20442;-78
2023/10/20 08:53:36;;;;;;;7.33;5.10;;;14.30;99.90;;;;;;5093623;28;20492;-77
2023/10/20 08:56:04;;;;;;;5.77;4.50;;;14.30;99.90;;;;;;5092537;28;20458;-78
2023/10/20 08:58:31;;;;;;;5.33;4.83;;;14.30;99.90;;;;;;5078397;28;20456;-78
2023/10/20 09:00:58;;;;;;;5.60;4.50;;;14.30;99.90;;;;;;5081411;28;21026;-77
2023/10/20 09:03:26;;;;;;;4.30;3.80;;;14.30;99.90;;;;;;5081400;28;20482;-77
2023/10/20 09:06:05;;;;;;;5.13;4.63;;;14.30;99.90;;;;;;5080576;28;20460;-77
2023/10/20 09:08:31;;;;;;;6.07;5.47;;;14.30;99.90;;;;;;5075750;28;20468;-79
2023/10/20 09:10:58;;;;;;;3.90;3.50;;;14.30;99.90;;;;;;5085180;28;20705;-77
2023/10/20 09:13:32;;;;;;;5.03;4.43;;;14.30;99.90;;;;;;5074140;28;20490;-78
2023/10/20 09:16:00;;;;;;;5.40;4.20;;;14.30;99.90;;;;;;5072945;28;20450;-78
2023/10/20 09:18:26;;;;;;;3.93;3.43;;;14.30;99.90;;;;;;5072739;28;20520;-78
2023/10/20 09:21:03;;;;;;;7.50;4.10;;;14.20;99.90;;;;;;5074892;28;21001;-78
2023/10/20 09:23:30;;;;;;;4.20;3.67;;;14.30;99.90;;;;;;5073824;28;20473;-78
2023/10/20 09:25:57;;;;;;;4.53;4.03;;;14.30;99.90;;;;;;5076096;28;20541;-78
2023/10/20 09:28:23;;;;;;;4.90;4.40;;;14.30;99.90;;;;;;5075423;28;20529;-78
2023/10/20 09:30:51;;;;;;;3.53;3.20;;;14.30;99.90;;;;;;5074373;28;20974;-78
2023/10/20 09:33:18;;;;;;;5.27;4.73;;;14.30;99.90;;;;;;5077490;28;20506;-77
2023/10/20 09:35:46;;;;;;;4.87;4.37;;;14.30;99.90;;;;;;5078907;28;20468;-77
2023/10/20 09:38:16;;;;;;;4.90;4.40;;;14.20;99.90;;;;;;5076448;28;20444;-77
2023/10/20 09:40:44;;;;;;;4.73;4.27;;;14.10;99.90;;;;;;5078310;28;20477;-77
2023/10/20 09:43:22;;;;;;;5.53;4.00;;;14.10;99.90;;;;;;5077427;28;20502;-77
2023/10/20 09:45:57;;;;;;;5.53;4.97;;;14.20;99.90;;;;;;5076406;28;20450;-78
2023/10/20 09:48:26;;;;;;;4.10;3.70;;;14.20;99.90;;;;;;5074157;28;20454;-78
2023/10/20 09:50:55;;;;;;;4.37;3.30;;;14.20;99.90;;;;;;5077073;28;21048;-78
2023/10/20 09:53:23;;;;;;;4.30;3.90;;;14.20;99.90;;;;;;5073629;28;20488;-77
2023/10/20 09:55:51;;;;;;;5.83;5.23;;;14.20;99.90;;;;;;5077694;28;20481;-77
2023/10/20 09:58:25;;;;;;;4.57;3.90;;;14.20;99.90;;;;;;5081881;28;20458;-79
2023/10/20 10:00:53;;;;;;;6.00;4.27;;;14.20;99.90;;;;;;5080061;28;20498;-78
2023/10/20 10:03:28;;;;;;;4.77;3.60;;;14.20;99.90;;;;;;5075442;28;20493;-77
2023/10/20 10:05:55;;;;;;;4.53;4.13;;;14.20;99.90;;;;;;5076178;28;20438;-78
2023/10/20 10:08:25;;;;;;;4.70;4.20;;;14.20;99.90;;;;;;5075037;28;20459;-78
2023/10/20 10:10:52;;;;;;;4.30;3.90;;;14.20;99.90;;;;;;5075742;28;20447;-78
2023/10/20 10:13:34;;;;;;;4.33;3.93;;;14.00;99.90;;;;;;5080462;28;20483;-78
2023/10/20 10:16:13;;;;;;;3.90;3.60;;;14.00;99.90;;;;;;5076903;28;20448;-77
2023/10/20 10:18:46;;;;;;;4.50;3.73;;;14.10;99.90;;;;;;5078587;28;20443;-77
2023/10/20 10:21:24;;;;;;;4.13;3.60;;;14.10;99.90;;;;;;5078758;28;20446;-77
2023/10/20 10:24:15;;;;;;;4.00;3.70;;;14.00;99.90;;;;;;5076876;28;20469;-78
2023/10/20 10:26:53;;;;;;;3.43;3.03;;;14.10;99.90;;;;;;5081498;28;20461;-78
2023/10/20 10:29:21;;;;;;;3.80;3.37;;;14.10;99.90;;;;;;5086728;28;20890;-78
2023/10/20 10:31:49;;;;;;;3.90;3.50;;;14.10;99.90;;;;;;5087608;28;20863;-79
2023/10/20 10:34:16;;;;;;;3.90;3.50;;;14.10;99.90;;;;;;5082616;28;20483;-78
2023/10/20 10:36:47;;;;;;;3.43;3.13;;;14.00;99.90;;;;;;5093275;28;20464;-78
2023/10/20 10:39:28;;;;;;;3.37;3.07;;;14.00;99.90;;;;;;5100115;28;20479;-79
2023/10/20 10:41:55;;;;;;;4.20;3.00;;;14.00;99.90;;;;;;5089864;28;20478;-79
2023/10/20 10:44:23;;;;;;;5.57;4.13;;;14.00;99.90;;;;;;5080489;28;20452;-78
2023/10/20 10:46:51;;;;;;;3.97;3.57;;;14.00;99.90;;;;;;5077753;28;20842;-78
2023/10/20 10:49:18;;;;;;;4.20;3.60;;;14.00;99.90;;;;;;5083586;28;20457;-78
2023/10/20 10:51:46;;;;;;;4.10;3.43;;;14.00;99.90;;;;;;5089131;28;21049;-79
2023/10/20 10:54:13;;;;;;;3.93;3.40;;;14.10;99.90;;;;;;5090074;28;20529;-79
2023/10/20 10:56:42;;;;;;;5.37;3.80;;;14.10;99.90;;;;;;5089719;28;20458;-78
2023/10/20 10:59:10;;;;;;;4.90;4.10;;;14.00;99.90;;;;;;5092244;28;20871;-77
2023/10/20 11:01:39;;;;;;;4.83;4.30;;;13.90;99.90;;;;;;5099068;28;20464;-78
2023/10/20 11:04:09;;;;;;;4.60;4.20;;;13.90;99.90;;;;;;5093256;28;20450;-77
2023/10/20 11:06:37;;;;;;;4.37;3.97;;;13.90;99.90;;;;;;5097078;28;20463;-77
2023/10/20 11:09:08;;;;;;;3.90;3.50;;;14.00;99.90;;;;;;5106338;28;20442;-77
2023/10/20 11:11:39;;;;;;;5.70;4.50;;;14.00;99.90;;;;;;5104329;28;20450;-76
2023/10/20 11:14:07;;;;;;;4.67;4.17;;;14.00;99.90;;;;;;5101430;28;20482;-77
2023/10/20 11:16:36;;;;;;;3.80;3.43;;;14.10;99.90;;;;;;5092960;28;20948;-77
2023/10/20 11:19:03;;;;;;;5.33;3.80;;;14.10;99.90;;;;;;5092954;28;20493;-78
2023/10/20 11:21:31;;;;;;;3.90;3.60;;;14.10;99.90;;;;;;5092582;28;20538;-78
2023/10/20 11:23:58;;;;;;;5.13;4.60;;;14.10;99.90;;;;;;5097168;28;20496;-78
2023/10/20 11:26:25;;;;;;;4.97;4.20;;;14.10;99.90;;;;;;5097366;28;20891;-78
2023/10/20 11:28:52;;;;;;;4.67;4.27;;;14.10;99.90;;;;;;5081763;28;20825;-77
2023/10/20 11:31:20;;;;;;;4.47;4.07;;;14.10;99.90;;;;;;5098352;28;20452;-77
2023/10/20 11:33:47;;;;;;;5.03;4.57;;;14.10;99.90;;;;;;5077031;28;21008;-78
2023/10/20 11:36:14;;;;;;;4.50;3.43;;;14.10;99.90;;;;;;5084928;28;20522;-78
2023/10/20 11:38:41;;;;;;;4.63;3.80;;;14.00;99.90;;;;;;5079943;28;21027;-78
2023/10/20 11:41:08;;;;;;;4.50;3.80;;;14.00;99.90;;;;;;5097289;28;20458;-78
2023/10/20 11:43:37;;;;;;;7.70;3.43;;;14.00;99.90;;;;;;5098484;28;20462;-78
2023/10/20 11:46:05;;;;;;;4.13;3.73;;;14.00;99.90;;;;;;5098086;28;20463;-78
2023/10/20 11:48:33;;;;;;;3.03;2.77;;;14.10;99.90;;;;;;5092635;28;20960;-77
2023/10/20 11:51:00;;;;;;;2.97;2.67;;;14.10;99.90;;;;;;5084780;28;20528;-77
2023/10/20 11:53:27;;;;;;;3.33;3.03;;;14.20;99.90;;;;;;5076864;28;20502;-77
2023/10/20 11:55:54;;;;;;;4.50;2.87;;;14.10;99.90;;;;;;5077579;28;20463;-79
2023/10/20 11:58:21;;;;;;;3.80;3.23;;;14.20;99.90;;;;;;5077156;28;20465;-78
2023/10/20 12:00:48;;;;;;;3.63;3.30;;;14.20;99.90;;;;;;5079980;28;20537;-79
2023/10/20 12:03:15;;;;;;;4.63;3.27;;;14.20;99.90;;;;;;5077409;28;20459;-79
2023/10/20 12:05:46;;;;;;;3.70;3.20;;;14.10;99.90;;;;;;5080063;28;20508;-79
2023/10/20 12:08:13;;;;;;;3.20;2.70;;;14.10;99.90;;;;;;5078054;28;20855;-80
2023/10/20 12:10:40;;;;;;;3.40;2.57;;;14.00;99.90;;;;;;5078590;28;20468;-79
2023/10/20 12:13:06;;;;;;;3.40;3.10;;;14.00;99.90;;;;;;5077924;28;20991;-78
2023/10/20 12:15:33;;;;;;;3.30;2.90;;;13.90;99.90;;;;;;5079067;28;20539;-79
2023/10/20 12:18:00;;;;;;;5.43;3.07;;;13.90;99.90;;;;;;5077914;28;20664;-77
2023/10/20 12:20:27;;;;;;;3.10;2.80;;;13.90;99.90;;;;;;5078643;28;20869;-77
2023/10/20 12:22:58;;;;;;;4.10;2.90;;;13.80;99.90;;;;;;5079589;28;20472;-78
2023/10/20 12:25:25;;;;;;;3.80;3.17;;;13.80;99.90;;;;;;5077439;28;20493;-78
2023/10/20 12:27:52;;;;;;;3.70;3.20;;;13.90;99.90;;;;;;5077179;28;20449;-78
2023/10/20 12:30:19;;;;;;;3.80;3.43;;;13.80;99.90;;;;;;5078100;28;20454;-78
2023/10/20 12:32:46;;;;;;;3.40;2.87;;;13.80;99.90;;;;;;5081945;28;20499;-78
2023/10/20 12:35:14;;;;;;;3.30;3.00;;;13.70;99.90;;;;;;5076404;28;20477;-79
2023/10/20 12:37:40;;;;;;;3.47;3.13;;;13.80;99.90;;;;;;5074244;28;20464;-78
2023/10/20 12:40:13;;;;;;;4.60;3.00;;;13.80;99.90;;;;;;5075770;28;21526;-77
2023/10/20 12:42:40;;;;;;;4.93;3.13;;;13.80;99.90;;;;;;5079304;28;20605;-78
2023/10/20 12:45:09;;;;;;;4.33;3.00;;;13.70;99.90;;;;;;5080947;28;20536;-78
2023/10/20 12:47:36;;;;;;;4.30;3.10;;;13.70;99.90;;;;;;5077450;28;20453;-78
2023/10/20 12:50:03;;;;;;;2.97;2.50;;;13.70;99.90;;;;;;5081292;28;20456;-78
2023/10/20 12:52:30;;;;;;;3.80;2.77;;;13.70;99.90;;;;;;5078557;28;20463;-79
2023/10/20 12:54:57;;;;;;;3.80;2.83;;;13.60;99.90;;;;;;5076853;28;20486;-79
2023/10/20 12:57:25;;;;;;;3.30;3.00;;;13.70;99.90;;;;;;5076010;28;20459;-79
2023/10/20 12:59:52;;;;;;;4.00;3.60;;;13.60;99.90;;;;;;5074734;28;20444;-78
2023/10/20 13:02:19;;;;;;;4.47;3.43;;;13.60;99.90;;;;;;5075765;28;20837;-78